createdAt,value
2023-03-27T00:01:07.991Z,3.35
2023-03-27T00:03:34.519Z,3.35
2023-03-27T00:06:02.812Z,3.22
2023-03-27T00:08:29.789Z,3.28
2023-03-27T00:10:56.349Z,3.17
2023-03-27T00:13:22.885Z,3.21
2023-03-27T00:15:50.469Z,3.09
2023-03-27T00:18:17.513Z,3.17
2023-03-27T00:20:44.623Z,3.21
2023-03-27T00:23:11.080Z,3.18
2023-03-27T00:25:37.545Z,3.06
2023-03-27T00:28:09.836Z,2.97
2023-03-27T00:30:37.013Z,2.98
2023-03-27T00:33:03.634Z,2.85
2023-03-27T00:35:30.115Z,2.85
2023-03-27T00:37:58.813Z,2.91
2023-03-27T00:40:25.573Z,2.90
2023-03-27T00:42:52.166Z,3.06
2023-03-27T00:45:30.121Z,2.96
2023-03-27T00:48:02.892Z,2.85
2023-03-27T00:50:37.283Z,2.86
2023-03-27T00:53:10.230Z,2.91
2023-03-27T00:55:38.477Z,2.65
2023-03-27T00:58:10.338Z,2.92
2023-03-27T01:00:36.894Z,2.88
2023-03-27T01:03:05.907Z,2.57
2023-03-27T01:05:33.479Z,2.62
2023-03-27T01:08:01.804Z,2.75
2023-03-27T01:10:39.670Z,2.74
2023-03-27T01:13:38.332Z,2.64
2023-03-27T01:16:25.843Z,2.51
2023-03-27T01:19:01.421Z,2.50
2023-03-27T01:21:52.628Z,2.63
2023-03-27T01:24:35.285Z,2.67
2023-03-27T01:27:05.365Z,2.56
2023-03-27T01:29:31.635Z,2.47
2023-03-27T01:32:12.955Z,2.40
2023-03-27T01:35:01.315Z,2.47
2023-03-27T01:37:43.444Z,2.47
2023-03-27T01:40:14.962Z,2.45
2023-03-27T01:42:48.299Z,2.39
2023-03-27T01:45:20.615Z,2.41
2023-03-27T01:47:56.477Z,2.31
2023-03-27T01:50:29.123Z,2.32
2023-03-27T01:53:01.178Z,2.34
2023-03-27T01:55:31.874Z,2.45
2023-03-27T01:58:03.112Z,2.33
2023-03-27T02:00:51.472Z,2.42
2023-03-27T02:03:21.028Z,2.42
2023-03-27T02:05:58.332Z,2.32
2023-03-27T02:08:31.137Z,2.28
2023-03-27T02:10:59.054Z,2.36
2023-03-27T02:13:47.305Z,2.37
2023-03-27T02:16:16.792Z,2.30
2023-03-27T02:18:48.030Z,2.34
2023-03-27T02:21:15.293Z,2.28
2023-03-27T02:23:41.880Z,2.29
2023-03-27T02:26:11.283Z,2.41
2023-03-27T02:28:41.398Z,2.08
2023-03-27T02:31:44.139Z,2.03
2023-03-27T02:34:10.462Z,2.08
2023-03-27T02:36:50.739Z,2.13
2023-03-27T02:39:40.535Z,2.12
2023-03-27T02:42:17.840Z,2.21
2023-03-27T02:44:52.323Z,1.87
2023-03-27T02:47:18.824Z,1.95
2023-03-27T02:49:58.447Z,1.85
2023-03-27T02:52:30.071Z,2.06
2023-03-27T02:55:06.154Z,1.88
2023-03-27T02:57:39.536Z,1.77
2023-03-27T03:00:25.913Z,1.71
2023-03-27T03:03:10.496Z,1.65
2023-03-27T03:05:37.123Z,1.51
2023-03-27T03:08:04.787Z,1.37
2023-03-27T03:10:31.468Z,1.48
2023-03-27T03:12:57.929Z,1.41
2023-03-27T03:15:24.322Z,1.38
2023-03-27T03:17:51.019Z,1.38
2023-03-27T03:20:17.565Z,1.32
2023-03-27T03:22:43.960Z,1.26
2023-03-27T03:25:12.939Z,1.31
2023-03-27T03:27:41.204Z,1.42
2023-03-27T03:30:09.542Z,1.30
2023-03-27T03:32:35.990Z,1.65
2023-03-27T03:35:02.819Z,1.44
2023-03-27T03:37:29.216Z,1.21
2023-03-27T03:39:55.866Z,1.41
2023-03-27T03:42:24.171Z,1.27
2023-03-27T03:44:50.909Z,1.40
2023-03-27T03:47:17.408Z,0.86
2023-03-27T03:49:43.810Z,1.18
2023-03-27T03:52:10.632Z,0.97
2023-03-27T03:54:38.577Z,0.75
2023-03-27T03:57:05.093Z,0.89
2023-03-27T03:59:32.037Z,0.85
2023-03-27T04:01:58.443Z,0.95
2023-03-27T04:04:25.079Z,1.06
2023-03-27T04:06:52.916Z,1.01
2023-03-27T04:09:19.290Z,1.31
2023-03-27T04:11:45.924Z,1.13
2023-03-27T04:14:12.299Z,1.06
2023-03-27T04:16:38.661Z,0.95
2023-03-27T04:19:05.615Z,1.33
2023-03-27T04:21:33.045Z,1.38
2023-03-27T04:24:02.342Z,1.27
2023-03-27T04:26:29.552Z,1.65
2023-03-27T04:28:56.028Z,1.84
2023-03-27T04:31:22.459Z,1.90
2023-03-27T04:33:51.870Z,1.88
2023-03-27T04:36:18.849Z,1.61
2023-03-27T04:38:45.532Z,1.84
2023-03-27T04:41:11.964Z,1.74
2023-03-27T04:43:40.077Z,1.54
2023-03-27T04:46:07.182Z,1.75
2023-03-27T04:48:34.044Z,1.83
2023-03-27T04:51:00.475Z,1.81
2023-03-27T04:53:30.124Z,1.40
2023-03-27T04:55:57.102Z,1.77
2023-03-27T04:58:26.609Z,1.90
2023-03-27T05:00:56.325Z,1.48
2023-03-27T05:03:27.721Z,1.13
2023-03-27T05:05:54.284Z,1.23
2023-03-27T05:08:20.866Z,1.01
2023-03-27T05:10:47.259Z,1.20
2023-03-27T05:13:13.724Z,1.23
2023-03-27T05:15:40.296Z,1.25
2023-03-27T05:18:07.395Z,1.06
2023-03-27T05:20:34.314Z,1.08
2023-03-27T05:23:00.881Z,0.65
2023-03-27T05:25:28.542Z,0.60
2023-03-27T05:27:54.997Z,0.53
2023-03-27T05:30:23.106Z,0.53
2023-03-27T05:32:51.948Z,0.66
2023-03-27T05:35:20.915Z,0.99
2023-03-27T05:37:48.844Z,0.98
2023-03-27T05:40:16.855Z,1.00
2023-03-27T05:42:44.573Z,1.07
2023-03-27T05:45:12.057Z,0.95
2023-03-27T05:47:45.480Z,1.42
2023-03-27T05:50:11.930Z,1.25
2023-03-27T05:52:38.610Z,1.20
2023-03-27T05:55:06.498Z,0.82
2023-03-27T05:57:32.965Z,0.98
2023-03-27T06:00:00.190Z,1.21
2023-03-27T06:02:27.634Z,1.15
2023-03-27T06:04:54.049Z,1.24
2023-03-27T06:07:20.438Z,1.39
2023-03-27T06:09:46.811Z,1.34
2023-03-27T06:12:13.189Z,1.39
2023-03-27T06:14:39.557Z,1.52
2023-03-27T06:17:06.393Z,1.55
2023-03-27T06:19:32.768Z,1.84
2023-03-27T06:21:59.155Z,1.71
2023-03-27T06:24:26.273Z,2.07
2023-03-27T06:26:52.942Z,2.15
2023-03-27T06:29:19.987Z,2.07
2023-03-27T06:31:48.284Z,2.00
2023-03-27T06:34:15.045Z,1.93
2023-03-27T06:36:41.508Z,1.96
2023-03-27T06:39:08.254Z,2.05
2023-03-27T06:41:34.668Z,2.10
2023-03-27T06:44:01.460Z,2.23
2023-03-27T06:46:35.617Z,2.24
2023-03-27T06:49:11.494Z,2.21
2023-03-27T06:51:37.888Z,2.48
2023-03-27T06:54:04.596Z,2.60
2023-03-27T06:56:31.280Z,2.48
2023-03-27T06:58:57.662Z,2.51
2023-03-27T07:01:24.064Z,2.64
2023-03-27T07:03:50.599Z,2.34
2023-03-27T07:06:19.161Z,2.64
2023-03-27T07:08:47.694Z,2.81
2023-03-27T07:11:15.621Z,2.88
2023-03-27T07:13:42.256Z,2.97
2023-03-27T07:16:11.871Z,3.07
2023-03-27T07:18:38.438Z,3.08
2023-03-27T07:21:04.957Z,3.13
2023-03-27T07:23:31.604Z,3.22
2023-03-27T07:25:59.210Z,3.11
2023-03-27T07:28:26.197Z,3.33
2023-03-27T07:30:52.739Z,3.55
2023-03-27T07:33:19.511Z,3.67
2023-03-27T07:35:47.477Z,3.56
2023-03-27T07:38:14.377Z,3.83
2023-03-27T07:40:42.609Z,3.83
2023-03-27T07:43:09.240Z,3.99
2023-03-27T07:45:36.494Z,4.22
2023-03-27T07:48:08.415Z,4.13
2023-03-27T07:50:35.797Z,4.43
2023-03-27T07:53:02.186Z,4.21
2023-03-27T07:55:29.650Z,4.22
2023-03-27T07:58:01.679Z,4.59
2023-03-27T08:00:31.057Z,4.93
2023-03-27T08:03:08.374Z,4.83
2023-03-27T08:05:35.725Z,4.77
2023-03-27T08:08:02.112Z,4.79
2023-03-27T08:10:28.517Z,4.83
2023-03-27T08:12:54.993Z,5.03
2023-03-27T08:15:24.821Z,5.12
2023-03-27T08:17:54.353Z,5.15
2023-03-27T08:20:22.743Z,4.95
2023-03-27T08:22:53.498Z,4.84
2023-03-27T08:25:22.374Z,5.00
2023-03-27T08:27:49.130Z,5.11
2023-03-27T08:30:17.035Z,5.32
2023-03-27T08:32:44.002Z,5.45
2023-03-27T08:35:10.752Z,5.39
2023-03-27T08:37:37.104Z,5.42
2023-03-27T08:40:08.723Z,5.25
2023-03-27T08:42:37.717Z,5.54
2023-03-27T08:45:13.198Z,5.16
2023-03-27T08:47:49.171Z,5.16
2023-03-27T08:50:26.198Z,5.53
2023-03-27T08:52:52.853Z,5.40
2023-03-27T08:55:26.090Z,5.33
2023-03-27T08:57:52.760Z,5.20
2023-03-27T09:00:22.783Z,5.31
2023-03-27T09:02:57.025Z,5.81
2023-03-27T09:05:26.263Z,5.61
2023-03-27T09:08:11.296Z,5.74
2023-03-27T09:11:15.686Z,5.42
2023-03-27T09:13:49.619Z,5.50
2023-03-27T09:16:21.867Z,5.69
2023-03-27T09:18:57.851Z,5.74
2023-03-27T09:21:34.780Z,6.04
2023-03-27T09:24:01.345Z,6.13
2023-03-27T09:26:35.626Z,6.14
2023-03-27T09:29:21.125Z,5.80
2023-03-27T09:31:51.912Z,5.74
2023-03-27T09:34:25.063Z,6.16
2023-03-27T09:36:51.460Z,5.76
2023-03-27T09:39:22.268Z,5.56
2023-03-27T09:41:53.029Z,5.39
2023-03-27T09:44:25.608Z,5.71
2023-03-27T09:46:58.060Z,6.40
2023-03-27T09:49:25.770Z,6.16
2023-03-27T09:52:00.130Z,5.87
2023-03-27T09:54:31.974Z,5.90
2023-03-27T09:57:04.194Z,5.68
2023-03-27T09:59:34.630Z,5.55
2023-03-27T10:02:21.954Z,5.96
2023-03-27T10:05:00.667Z,5.80
2023-03-27T10:07:27.331Z,6.25
2023-03-27T10:10:12.195Z,6.63
2023-03-27T10:12:39.343Z,6.80
2023-03-27T10:15:07.827Z,6.90
2023-03-27T10:17:38.804Z,7.88
2023-03-27T10:20:17.537Z,6.63
2023-03-27T10:22:54.565Z,6.48
2023-03-27T10:25:37.872Z,6.31
2023-03-27T10:28:27.370Z,6.64
2023-03-27T10:31:06.505Z,7.47
2023-03-27T10:33:36.467Z,7.88
2023-03-27T10:36:04.665Z,7.63
2023-03-27T10:38:32.532Z,6.82
2023-03-27T10:41:00.216Z,6.66
2023-03-27T10:43:43.852Z,6.47
2023-03-27T10:46:15.833Z,7.28
2023-03-27T10:48:57.600Z,7.03
2023-03-27T10:51:49.628Z,7.10
2023-03-27T10:54:42.518Z,7.34
2023-03-27T10:57:35.526Z,8.01
2023-03-27T11:00:13.369Z,8.27
2023-03-27T11:02:45.251Z,8.12
2023-03-27T11:05:16.491Z,7.87
2023-03-27T11:07:47.644Z,7.78
2023-03-27T11:10:19.396Z,7.11
2023-03-27T11:12:54.414Z,5.55
2023-03-27T11:15:27.785Z,5.37
2023-03-27T11:18:05.495Z,5.00
2023-03-27T11:20:35.503Z,5.38
2023-03-27T11:23:11.798Z,6.62
2023-03-27T11:25:43.218Z,7.36
2023-03-27T11:28:26.976Z,8.29
2023-03-27T11:31:12.662Z,8.85
2023-03-27T11:33:49.182Z,9.91
2023-03-27T11:36:35.155Z,8.83
2023-03-27T11:39:15.341Z,8.33
2023-03-27T11:41:44.154Z,8.31
2023-03-27T11:44:11.043Z,7.92
2023-03-27T11:46:56.197Z,7.53
2023-03-27T11:49:44.531Z,6.54
2023-03-27T11:52:29.902Z,4.97
2023-03-27T11:55:07.574Z,4.16
2023-03-27T11:57:42.899Z,3.92
2023-03-27T12:00:18.276Z,3.72
2023-03-27T12:02:59.923Z,5.21
2023-03-27T12:05:58.342Z,5.95
2023-03-27T12:08:45.464Z,7.42
2023-03-27T12:11:12.492Z,7.32
2023-03-27T12:13:42.816Z,7.64
2023-03-27T12:16:35.632Z,7.61
2023-03-27T12:19:39.111Z,7.35
2023-03-27T12:22:56.682Z,8.90
2023-03-27T12:25:33.619Z,9.43
2023-03-27T12:28:22.378Z,9.09
2023-03-27T12:31:20.631Z,9.07
2023-03-27T12:33:59.340Z,8.79
2023-03-27T12:36:26.397Z,8.96
2023-03-27T12:38:55.699Z,9.65
2023-03-27T12:41:24.519Z,10.29
2023-03-27T12:43:57.094Z,9.39
2023-03-27T12:46:23.479Z,8.97
2023-03-27T12:49:08.150Z,7.98
2023-03-27T12:52:02.656Z,7.10
2023-03-27T12:54:34.160Z,7.26
2023-03-27T12:57:20.524Z,6.83
2023-03-27T12:59:54.218Z,6.69
2023-03-27T13:02:42.480Z,6.85
2023-03-27T13:05:20.409Z,7.08
2023-03-27T13:08:15.811Z,7.19
2023-03-27T13:10:52.458Z,6.95
2023-03-27T13:13:30.305Z,7.05
2023-03-27T13:16:11.644Z,7.30
2023-03-27T13:18:48.291Z,7.30
2023-03-27T13:21:41.295Z,7.59
2023-03-27T13:24:19.510Z,8.85
2023-03-27T13:26:51.935Z,9.67
2023-03-27T13:29:21.270Z,9.60
2023-03-27T13:31:49.183Z,9.59
2023-03-27T13:34:39.665Z,9.27
2023-03-27T13:37:09.040Z,9.62
2023-03-27T13:39:55.646Z,9.32
2023-03-27T13:42:30.563Z,9.17
2023-03-27T13:45:00.055Z,9.51
2023-03-27T13:47:33.401Z,10.18
2023-03-27T13:50:21.056Z,10.71
2023-03-27T13:52:59.578Z,11.49
2023-03-27T13:55:31.130Z,10.64
2023-03-27T13:58:15.865Z,11.58
2023-03-27T14:01:02.969Z,10.79
2023-03-27T14:03:52.385Z,8.17
2023-03-27T14:06:44.925Z,6.65
2023-03-27T14:09:11.217Z,5.81
2023-03-27T14:11:47.807Z,5.32
2023-03-27T14:14:37.147Z,5.20
2023-03-27T14:17:22.050Z,5.05
2023-03-27T14:20:06.856Z,5.65
2023-03-27T14:22:42.866Z,5.65
2023-03-27T14:25:21.069Z,5.99
2023-03-27T14:27:54.134Z,6.38
2023-03-27T14:30:23.985Z,8.74
2023-03-27T14:32:50.539Z,10.69
2023-03-27T14:35:36.082Z,10.42
2023-03-27T14:38:28.234Z,10.83
2023-03-27T14:40:59.451Z,9.91
2023-03-27T14:43:27.824Z,8.69
2023-03-27T14:45:59.779Z,8.50
2023-03-27T14:48:37.081Z,8.16
2023-03-27T14:51:09.286Z,7.84
2023-03-27T14:53:36.322Z,7.86
2023-03-27T14:56:06.054Z,7.91
2023-03-27T14:58:32.456Z,7.58
2023-03-27T15:01:00.301Z,6.64
2023-03-27T15:03:30.067Z,6.53
2023-03-27T15:06:00.990Z,6.76
2023-03-27T15:08:33.908Z,7.10
2023-03-27T15:11:00.536Z,7.31
2023-03-27T15:13:33.586Z,7.01
2023-03-27T15:16:00.899Z,6.69
2023-03-27T15:18:34.322Z,7.08
2023-03-27T15:21:04.221Z,7.25
2023-03-27T15:23:55.523Z,7.57
2023-03-27T15:26:25.494Z,8.23
2023-03-27T15:29:08.052Z,8.32
2023-03-27T15:31:35.112Z,8.33
2023-03-27T15:34:06.263Z,7.93
2023-03-27T15:36:34.569Z,8.14
2023-03-27T15:39:02.556Z,8.85
2023-03-27T15:41:31.861Z,10.53
2023-03-27T15:44:03.291Z,11.20
2023-03-27T15:46:51.096Z,11.70
2023-03-27T15:49:19.975Z,11.11
2023-03-27T15:51:46.351Z,9.73
2023-03-27T15:54:24.476Z,9.65
2023-03-27T15:56:51.289Z,9.69
2023-03-27T15:59:17.945Z,8.94
2023-03-27T16:02:03.538Z,9.08
2023-03-27T16:04:39.152Z,9.48
2023-03-27T16:07:18.291Z,10.39
2023-03-27T16:09:54.828Z,9.06
2023-03-27T16:12:25.982Z,8.52
2023-03-27T16:14:54.466Z,7.97
2023-03-27T16:17:32.296Z,8.14
2023-03-27T16:20:01.900Z,7.95
2023-03-27T16:22:30.675Z,7.48
2023-03-27T16:24:57.794Z,8.52
2023-03-27T16:27:27.672Z,8.28
2023-03-27T16:29:54.468Z,7.93
2023-03-27T16:32:22.012Z,7.88
2023-03-27T16:34:51.399Z,7.46
2023-03-27T16:37:20.057Z,7.41
2023-03-27T16:39:46.784Z,7.34
2023-03-27T16:42:15.961Z,7.14
2023-03-27T16:44:43.138Z,7.37
2023-03-27T16:47:09.531Z,7.04
2023-03-27T16:49:35.935Z,6.96
2023-03-27T16:52:02.441Z,6.90
2023-03-27T16:54:28.807Z,7.40
2023-03-27T16:56:55.262Z,7.52
2023-03-27T16:59:21.747Z,7.99
2023-03-27T17:01:48.340Z,8.11
2023-03-27T17:04:14.797Z,7.88
2023-03-27T17:06:41.618Z,8.63
2023-03-27T17:09:09.509Z,8.21
2023-03-27T17:11:36.196Z,7.83
2023-03-27T17:14:02.807Z,7.19
2023-03-27T17:16:29.199Z,7.50
2023-03-27T17:18:57.242Z,7.10
2023-03-27T17:21:24.986Z,6.74
2023-03-27T17:23:52.690Z,6.95
2023-03-27T17:26:23.286Z,6.87
2023-03-27T17:28:49.715Z,6.96
2023-03-27T17:31:16.194Z,6.96
2023-03-27T17:33:42.643Z,6.36
2023-03-27T17:36:11.093Z,6.04
2023-03-27T17:38:38.072Z,6.23
2023-03-27T17:41:05.592Z,6.59
2023-03-27T17:43:32.190Z,6.17
2023-03-27T17:45:58.808Z,6.09
2023-03-27T17:48:25.367Z,6.07
2023-03-27T17:51:05.165Z,5.93
2023-03-27T17:53:34.436Z,5.99
2023-03-27T17:56:00.791Z,6.00
2023-03-27T17:58:28.501Z,5.35
2023-03-27T18:00:55.425Z,5.64
2023-03-27T18:03:22.132Z,5.63
2023-03-27T18:05:48.673Z,5.42
2023-03-27T18:08:16.953Z,5.29
2023-03-27T18:10:48.387Z,5.23
2023-03-27T18:13:16.091Z,5.00
2023-03-27T18:15:42.641Z,5.20
2023-03-27T18:18:09.182Z,5.14
2023-03-27T18:20:35.982Z,5.26
2023-03-27T18:23:02.772Z,4.93
2023-03-27T18:25:29.169Z,4.96
2023-03-27T18:27:55.767Z,4.94
2023-03-27T18:30:22.168Z,4.68
2023-03-27T18:32:48.763Z,4.62
2023-03-27T18:35:17.852Z,4.91
2023-03-27T18:37:44.702Z,4.66
2023-03-27T18:40:13.280Z,4.68
2023-03-27T18:42:40.630Z,4.42
2023-03-27T18:45:08.390Z,4.54
2023-03-27T18:47:35.508Z,4.58
2023-03-27T18:50:02.610Z,4.60
2023-03-27T18:52:29.035Z,4.49
2023-03-27T18:54:55.401Z,4.35
2023-03-27T18:57:22.118Z,4.42
2023-03-27T18:59:49.283Z,4.40
2023-03-27T19:02:17.213Z,4.51
2023-03-27T19:04:44.596Z,4.68
2023-03-27T19:07:11.596Z,4.50
2023-03-27T19:09:41.333Z,4.15
2023-03-27T19:12:08.177Z,4.11
2023-03-27T19:14:34.739Z,4.25
2023-03-27T19:17:01.157Z,4.06
2023-03-27T19:19:27.609Z,4.11
2023-03-27T19:21:54.516Z,3.82
2023-03-27T19:24:20.911Z,4.04
2023-03-27T19:26:47.329Z,4.11
2023-03-27T19:29:13.857Z,4.36
2023-03-27T19:31:40.558Z,4.05
2023-03-27T19:34:07.233Z,3.90
2023-03-27T19:36:34.014Z,4.10
2023-03-27T19:39:00.808Z,4.27
2023-03-27T19:41:27.344Z,3.95
2023-03-27T19:43:53.746Z,3.93
2023-03-27T19:46:20.187Z,3.85
2023-03-27T19:48:49.615Z,3.94
2023-03-27T19:51:16.014Z,3.52
2023-03-27T19:53:42.397Z,3.67
2023-03-27T19:56:08.786Z,3.72
2023-03-27T19:58:35.264Z,3.95
2023-03-27T20:01:01.676Z,3.60
2023-03-27T20:03:29.216Z,3.71
2023-03-27T20:06:07.039Z,3.51
2023-03-27T20:08:37.837Z,3.70
2023-03-27T20:11:04.376Z,3.64
2023-03-27T20:13:30.765Z,3.70
2023-03-27T20:15:57.968Z,3.54
2023-03-27T20:18:24.482Z,3.83
2023-03-27T20:20:50.856Z,3.53
2023-03-27T20:23:17.624Z,3.36
2023-03-27T20:25:44.740Z,3.31
2023-03-27T20:28:11.239Z,3.51
2023-03-27T20:30:38.968Z,3.38
2023-03-27T20:33:05.701Z,3.32
2023-03-27T20:35:33.270Z,3.50
2023-03-27T20:38:04.651Z,3.48
2023-03-27T20:40:52.946Z,3.39
2023-03-27T20:43:22.729Z,3.59
2023-03-27T20:45:54.646Z,3.50
2023-03-27T20:48:21.753Z,3.27
2023-03-27T20:50:51.093Z,3.12
2023-03-27T20:53:18.825Z,3.32
2023-03-27T20:55:59.374Z,2.90
2023-03-27T20:58:26.303Z,3.07
2023-03-27T21:00:53.417Z,2.91
2023-03-27T21:03:20.821Z,2.93
2023-03-27T21:05:47.291Z,3.16
2023-03-27T21:08:13.791Z,3.09
2023-03-27T21:10:41.126Z,3.24
2023-03-27T21:13:07.868Z,3.10
2023-03-27T21:15:34.559Z,3.04
2023-03-27T21:18:01.299Z,3.09
2023-03-27T21:20:27.958Z,3.17
2023-03-27T21:22:54.339Z,3.12
2023-03-27T21:25:21.529Z,3.03
2023-03-27T21:27:48.448Z,3.12
2023-03-27T21:30:16.506Z,2.86
2023-03-27T21:32:43.167Z,2.78
2023-03-27T21:35:09.851Z,2.73
2023-03-27T21:37:36.766Z,2.63
2023-03-27T21:40:04.670Z,2.56
2023-03-27T21:42:31.156Z,2.44
2023-03-27T21:44:57.674Z,2.64
2023-03-27T21:47:31.666Z,2.73
2023-03-27T21:50:04.065Z,2.94
2023-03-27T21:52:30.488Z,2.98
2023-03-27T21:55:02.887Z,3.03
2023-03-27T21:57:29.811Z,3.20
2023-03-27T21:59:56.242Z,3.28
2023-03-27T22:02:22.614Z,3.21
2023-03-27T22:04:49.144Z,3.08
2023-03-27T22:07:15.910Z,3.19
2023-03-27T22:09:44.311Z,3.19
2023-03-27T22:12:10.754Z,3.18
2023-03-27T22:14:37.138Z,3.22
2023-03-27T22:17:03.682Z,3.10
2023-03-27T22:19:30.398Z,3.05
2023-03-27T22:21:57.346Z,2.60
2023-03-27T22:24:25.382Z,2.64
2023-03-27T22:26:51.763Z,2.74
2023-03-27T22:29:18.120Z,2.32
2023-03-27T22:31:44.515Z,2.81
2023-03-27T22:34:11.664Z,3.02
2023-03-27T22:36:38.143Z,2.22
2023-03-27T22:39:04.943Z,2.53
2023-03-27T22:41:31.309Z,2.65
2023-03-27T22:44:00.255Z,2.60
2023-03-27T22:46:26.688Z,2.16
2023-03-27T22:48:55.210Z,2.05
2023-03-27T22:51:22.292Z,2.23
2023-03-27T22:53:48.840Z,2.09
2023-03-27T22:56:15.476Z,1.91
2023-03-27T22:58:41.827Z,2.05
2023-03-27T23:01:08.243Z,1.79
2023-03-27T23:03:34.684Z,2.31
2023-03-27T23:06:01.574Z,2.10
2023-03-27T23:08:28.629Z,2.00
2023-03-27T23:11:00.482Z,2.12
2023-03-27T23:13:28.234Z,1.97
2023-03-27T23:15:55.312Z,2.03
2023-03-27T23:18:24.367Z,1.88
2023-03-27T23:21:07.840Z,2.16
2023-03-27T23:23:35.718Z,2.06
2023-03-27T23:26:03.546Z,2.08
2023-03-27T23:28:32.971Z,2.40
2023-03-27T23:31:04.734Z,2.32
2023-03-27T23:33:41.809Z,2.01
2023-03-27T23:36:13.106Z,2.22
2023-03-27T23:38:41.265Z,2.28
2023-03-27T23:41:08.777Z,2.33
2023-03-27T23:43:35.721Z,2.45
2023-03-27T23:46:04.046Z,2.24
2023-03-27T23:48:31.105Z,2.13
2023-03-27T23:50:58.096Z,2.13
2023-03-27T23:53:26.100Z,2.19
2023-03-27T23:55:53.286Z,2.33
2023-03-27T23:58:20.158Z,1.79
